createdAt,value
2022-09-23T00:02:16.686Z,98007.53
2022-09-23T00:04:45.070Z,98003.47
2022-09-23T00:07:13.418Z,98002.91
2022-09-23T00:09:43.020Z,98005.94
2022-09-23T00:12:11.421Z,98004.41
2022-09-23T00:14:40.704Z,97996.16
2022-09-23T00:17:09.015Z,97998.00
2022-09-23T00:19:40.398Z,98000.91
2022-09-23T00:22:09.024Z,98001.03
2022-09-23T00:24:37.513Z,97999.47
2022-09-23T00:27:07.374Z,97997.22
2022-09-23T00:29:36.939Z,98000.59
2022-09-23T00:32:06.066Z,98002.53
2022-09-23T00:34:34.537Z,97986.94
2022-09-23T00:37:02.782Z,97993.19
2022-09-23T00:39:31.335Z,97988.88
2022-09-23T00:41:59.687Z,97977.97
2022-09-23T00:44:48.914Z,97977.28
2022-09-23T00:47:25.574Z,97975.84
2022-09-23T00:50:03.899Z,97985.75
2022-09-23T00:52:33.291Z,97980.72
2022-09-23T00:55:11.086Z,97978.22
2022-09-23T00:57:41.443Z,97975.84
2022-09-23T01:00:13.238Z,97967.31
2022-09-23T01:02:41.636Z,97973.44
2022-09-23T01:05:10.991Z,97964.94
2022-09-23T01:07:39.326Z,97960.75
2022-09-23T01:10:10.037Z,97960.03
2022-09-23T01:12:54.776Z,97959.44
2022-09-23T01:15:32.507Z,97956.38
2022-09-23T01:18:12.429Z,97954.84
2022-09-23T01:21:16.658Z,97954.25
2022-09-23T01:24:55.575Z,97959.09
2022-09-23T01:27:56.840Z,97964.09
2022-09-23T01:30:47.498Z,97968.91
2022-09-23T01:33:24.309Z,97966.41
2022-09-23T01:36:06.199Z,97964.03
2022-09-23T01:38:43.468Z,97963.16
2022-09-23T01:41:26.670Z,97952.97
2022-09-23T01:44:02.601Z,97952.97
2022-09-23T01:46:38.894Z,97950.59
2022-09-23T01:49:13.727Z,97953.38
2022-09-23T01:51:47.391Z,97952.94
2022-09-23T01:54:21.199Z,97951.25
2022-09-23T01:56:55.111Z,97949.72
2022-09-23T01:59:31.523Z,97950.81
2022-09-23T02:02:06.877Z,97951.19
2022-09-23T02:04:45.794Z,97951.31
2022-09-23T02:07:21.408Z,97949.75
2022-09-23T02:09:56.103Z,97949.88
2022-09-23T02:12:28.564Z,97945.69
2022-09-23T02:15:03.957Z,97942.22
2022-09-23T02:17:40.084Z,97939.69
2022-09-23T02:20:09.482Z,97946.06
2022-09-23T02:22:42.672Z,97941.03
2022-09-23T02:25:13.076Z,97942.97
2022-09-23T02:27:48.956Z,97943.25
2022-09-23T02:30:20.067Z,97940.00
2022-09-23T02:32:56.555Z,97936.75
2022-09-23T02:35:33.291Z,97936.31
2022-09-23T02:38:17.730Z,97939.09
2022-09-23T02:40:57.537Z,97937.28
2022-09-23T02:43:35.468Z,97924.44
2022-09-23T02:46:05.042Z,97926.84
2022-09-23T02:48:40.666Z,97937.41
2022-09-23T02:51:09.912Z,97937.53
2022-09-23T02:53:38.597Z,97930.69
2022-09-23T02:56:16.689Z,97933.59
2022-09-23T02:58:46.946Z,97929.41
2022-09-23T03:01:32.644Z,97929.53
2022-09-23T03:04:14.858Z,97926.31
2022-09-23T03:06:55.890Z,97924.88
2022-09-23T03:09:30.750Z,97921.66
2022-09-23T03:12:12.794Z,97924.41
2022-09-23T03:14:49.934Z,97923.59
2022-09-23T03:17:27.111Z,97927.44
2022-09-23T03:20:04.051Z,97917.97
2022-09-23T03:22:39.416Z,97921.47
2022-09-23T03:25:13.250Z,97918.22
2022-09-23T03:27:42.904Z,97919.19
2022-09-23T03:30:12.980Z,97918.59
2022-09-23T03:32:46.041Z,97912.59
2022-09-23T03:35:16.321Z,97911.03
2022-09-23T03:37:52.407Z,97906.88
2022-09-23T03:40:26.310Z,97901.13
2022-09-23T03:42:56.363Z,97904.34
2022-09-23T03:45:29.381Z,97905.28
2022-09-23T03:47:57.631Z,97909.75
2022-09-23T03:50:27.222Z,97904.59
2022-09-23T03:52:55.766Z,97903.03
2022-09-23T03:55:24.068Z,97894.53
2022-09-23T03:57:52.451Z,97894.53
2022-09-23T04:00:20.849Z,97899.94
2022-09-23T04:02:49.900Z,97896.56
2022-09-23T04:05:18.377Z,97889.75
2022-09-23T04:07:48.539Z,97887.38
2022-09-23T04:10:16.896Z,97889.28
2022-09-23T04:12:45.131Z,97891.22
2022-09-23T04:15:13.458Z,97888.72
2022-09-23T04:17:41.918Z,97893.13
2022-09-23T04:20:10.959Z,97885.47
2022-09-23T04:22:39.204Z,97888.22
2022-09-23T04:25:10.498Z,97882.09
2022-09-23T04:27:38.869Z,97891.00
2022-09-23T04:30:08.542Z,97884.19
2022-09-23T04:32:36.809Z,97884.31
2022-09-23T04:35:06.727Z,97883.56
2022-09-23T04:37:34.941Z,97891.59
2022-09-23T04:40:03.876Z,97885.59
2022-09-23T04:42:33.560Z,97892.81
2022-09-23T04:45:01.810Z,97893.75
2022-09-23T04:47:32.590Z,97897.63
2022-09-23T04:50:00.847Z,97903.88
2022-09-23T04:52:29.143Z,97902.16
2022-09-23T04:54:57.386Z,97902.28
2022-09-23T04:57:26.163Z,97896.19
2022-09-23T04:59:57.408Z,97900.63
2022-09-23T05:02:25.782Z,97904.94
2022-09-23T05:04:54.382Z,97905.03
2022-09-23T05:07:22.751Z,97905.16
2022-09-23T05:09:50.973Z,97897.41
2022-09-23T05:12:19.258Z,97903.75
2022-09-23T05:14:47.443Z,97910.00
2022-09-23T05:17:17.076Z,97904.09
2022-09-23T05:19:45.433Z,97901.47
2022-09-23T05:22:13.698Z,97899.91
2022-09-23T05:24:42.071Z,97907.72
2022-09-23T05:27:10.375Z,97905.06
2022-09-23T05:29:39.211Z,97907.84
2022-09-23T05:32:08.016Z,97911.44
2022-09-23T05:34:37.657Z,97903.53
2022-09-23T05:37:06.231Z,97915.75
2022-09-23T05:39:34.526Z,97910.47
2022-09-23T05:42:02.793Z,97909.50
2022-09-23T05:44:31.061Z,97916.47
2022-09-23T05:46:59.399Z,97914.53
2022-09-23T05:49:48.265Z,97911.91
2022-09-23T05:52:17.611Z,97911.66
2022-09-23T05:54:45.882Z,97904.72
2022-09-23T05:57:14.113Z,97908.66
2022-09-23T05:59:43.352Z,97905.78
2022-09-23T06:02:11.736Z,97904.56
2022-09-23T06:04:40.115Z,97906.00
2022-09-23T06:07:08.681Z,97911.88
2022-09-23T06:09:38.303Z,97908.84
2022-09-23T06:12:07.411Z,97902.41
2022-09-23T06:14:35.711Z,97901.19
2022-09-23T06:17:05.558Z,97901.66
2022-09-23T06:19:33.749Z,97903.94
2022-09-23T06:22:02.006Z,97900.66
2022-09-23T06:24:31.585Z,97901.13
2022-09-23T06:27:02.562Z,97907.56
2022-09-23T06:29:33.170Z,97906.25
2022-09-23T06:32:01.836Z,97907.41
2022-09-23T06:34:31.966Z,97905.81
2022-09-23T06:37:12.994Z,97902.28
2022-09-23T06:39:46.674Z,97897.91
2022-09-23T06:42:16.654Z,97903.00
2022-09-23T06:44:44.999Z,97900.31
2022-09-23T06:47:13.286Z,97899.06
2022-09-23T06:49:41.563Z,97898.56
2022-09-23T06:52:09.828Z,97893.63
2022-09-23T06:54:38.105Z,97893.16
2022-09-23T06:57:06.443Z,97889.84
2022-09-23T06:59:36.055Z,97892.00
2022-09-23T07:02:04.547Z,97889.41
2022-09-23T07:04:32.906Z,97891.38
2022-09-23T07:07:01.102Z,97886.13
2022-09-23T07:09:29.360Z,97880.13
2022-09-23T07:11:57.573Z,97880.94
2022-09-23T07:14:26.070Z,97879.38
2022-09-23T07:16:55.708Z,97880.03
2022-09-23T07:19:26.147Z,97878.19
2022-09-23T07:21:54.383Z,97876.13
2022-09-23T07:24:22.990Z,97878.59
2022-09-23T07:26:51.493Z,97877.34
2022-09-23T07:29:19.697Z,97878.06
2022-09-23T07:31:47.983Z,97877.44
2022-09-23T07:34:17.633Z,97885.16
2022-09-23T07:36:45.879Z,97883.00
2022-09-23T07:39:14.961Z,97884.66
2022-09-23T07:41:44.683Z,97883.84
2022-09-23T07:44:13.419Z,97869.31
2022-09-23T07:46:41.697Z,97873.25
2022-09-23T07:49:10.492Z,97877.88
2022-09-23T07:51:41.735Z,97876.47
2022-09-23T07:54:14.549Z,97873.84
2022-09-23T07:56:44.185Z,97866.88
2022-09-23T07:59:15.391Z,97866.03
2022-09-23T08:01:47.946Z,97868.25
2022-09-23T08:04:18.918Z,97870.88
2022-09-23T08:06:51.402Z,97858.47
2022-09-23T08:09:22.222Z,97858.41
2022-09-23T08:11:52.128Z,97859.03
2022-09-23T08:14:22.330Z,97865.06
2022-09-23T08:16:51.902Z,97857.25
2022-09-23T08:19:20.604Z,97856.25
2022-09-23T08:21:52.237Z,97859.81
2022-09-23T08:24:24.227Z,97847.75
2022-09-23T08:26:54.343Z,97856.75
2022-09-23T08:29:24.363Z,97856.22
2022-09-23T08:31:53.523Z,97851.38
2022-09-23T08:34:23.721Z,97856.16
2022-09-23T08:36:53.386Z,97852.88
2022-09-23T08:39:23.146Z,97851.47
2022-09-23T08:42:07.115Z,97851.56
2022-09-23T08:44:50.917Z,97844.91
2022-09-23T08:47:25.164Z,97843.63
2022-09-23T08:50:01.636Z,97843.38
2022-09-23T08:52:39.487Z,97840.41
2022-09-23T08:55:13.602Z,97839.94
2022-09-23T08:58:23.548Z,97848.75
2022-09-23T09:00:47.848Z,97834.78
2022-09-23T09:03:24.878Z,97838.63
2022-09-23T09:05:54.778Z,97840.81
2022-09-23T09:08:32.020Z,97835.94
2022-09-23T09:11:01.386Z,97834.13
2022-09-23T09:13:34.672Z,97836.00
2022-09-23T09:17:01.346Z,97826.53
2022-09-23T09:19:55.277Z,97828.66
2022-09-23T09:22:44.022Z,97822.47
2022-09-23T09:25:25.574Z,97823.72
2022-09-23T09:27:55.139Z,97817.06
2022-09-23T09:30:25.052Z,97812.50
2022-09-23T09:33:00.677Z,97814.19
2022-09-23T09:35:38.139Z,97809.41
2022-09-23T09:38:06.826Z,97801.91
2022-09-23T09:40:37.252Z,97800.22
2022-09-23T09:43:05.623Z,97799.78
2022-09-23T09:45:57.963Z,97793.50
2022-09-23T09:48:37.811Z,97785.59
2022-09-23T09:51:21.472Z,97784.72
2022-09-23T09:53:52.116Z,97782.00
2022-09-23T09:56:27.269Z,97781.13
2022-09-23T09:59:00.928Z,97781.28
2022-09-23T10:01:32.167Z,97774.22
2022-09-23T10:04:04.675Z,97774.59
2022-09-23T10:06:35.761Z,97770.59
2022-09-23T10:09:15.984Z,97767.25
2022-09-23T10:12:13.086Z,97773.06
2022-09-23T10:14:41.347Z,97763.22
2022-09-23T10:17:16.361Z,97771.13
2022-09-23T10:19:49.389Z,97772.75
2022-09-23T10:22:26.382Z,97767.31
2022-09-23T10:24:56.288Z,97760.63
2022-09-23T10:27:33.530Z,97760.38
2022-09-23T10:30:05.299Z,97763.19
2022-09-23T10:32:37.492Z,97755.38
2022-09-23T10:35:16.921Z,97752.78
2022-09-23T10:37:49.437Z,97748.91
2022-09-23T10:40:40.213Z,97744.66
2022-09-23T10:43:41.272Z,97738.75
2022-09-23T10:46:39.618Z,97743.44
2022-09-23T10:49:53.193Z,97739.84
2022-09-23T10:52:39.341Z,97737.44
2022-09-23T10:55:20.939Z,97732.78
2022-09-23T10:58:33.229Z,97731.13
2022-09-23T11:01:17.448Z,97733.84
2022-09-23T11:04:16.469Z,97733.38
2022-09-23T11:07:07.253Z,97730.22
2022-09-23T11:09:51.126Z,97723.28
2022-09-23T11:12:35.840Z,97728.25
2022-09-23T11:15:27.805Z,97719.00
2022-09-23T11:18:36.128Z,97710.72
2022-09-23T11:21:32.869Z,97707.22
2022-09-23T11:24:39.342Z,97709.97
2022-09-23T11:27:20.269Z,97698.81
2022-09-23T11:30:09.556Z,97697.38
2022-09-23T11:33:14.231Z,97700.59
2022-09-23T11:35:49.822Z,97687.78
2022-09-23T11:38:25.970Z,97692.13
2022-09-23T11:41:00.838Z,97690.03
2022-09-23T11:43:33.896Z,97682.75
2022-09-23T11:46:09.514Z,97682.59
2022-09-23T11:48:47.394Z,97680.72
2022-09-23T11:51:24.703Z,97673.78
2022-09-23T11:53:56.978Z,97681.81
2022-09-23T11:56:35.524Z,97673.19
2022-09-23T11:59:13.492Z,97665.53
2022-09-23T12:01:49.767Z,97659.38
2022-09-23T12:04:29.704Z,97660.44
2022-09-23T12:07:04.054Z,97658.88
2022-09-23T12:09:57.805Z,97654.72
2022-09-23T12:12:32.886Z,97659.81
2022-09-23T12:15:06.255Z,97654.03
2022-09-23T12:18:00.126Z,97650.50
2022-09-23T12:20:58.974Z,97651.91
2022-09-23T12:23:53.113Z,97652.28
2022-09-23T12:26:24.644Z,97647.22
2022-09-23T12:28:55.675Z,97643.78
2022-09-23T12:31:30.685Z,97639.78
2022-09-23T12:34:01.867Z,97640.38
2022-09-23T12:36:35.742Z,97645.19
2022-09-23T12:39:07.435Z,97632.72
2022-09-23T12:41:40.212Z,97626.94
2022-09-23T12:44:31.529Z,97625.91
2022-09-23T12:47:37.338Z,97620.72
2022-09-23T12:50:50.864Z,97622.59
2022-09-23T12:53:55.239Z,97614.47
2022-09-23T12:56:27.928Z,97611.28
2022-09-23T12:59:22.127Z,97616.22
2022-09-23T13:01:50.565Z,97615.41
2022-09-23T13:05:02.588Z,97604.31
2022-09-23T13:07:34.225Z,97599.75
2022-09-23T13:10:15.056Z,97601.84
2022-09-23T13:12:44.817Z,97597.50
2022-09-23T13:15:28.778Z,97597.75
2022-09-23T13:18:26.174Z,97593.84
2022-09-23T13:20:56.879Z,97586.66
2022-09-23T13:23:26.903Z,97583.59
2022-09-23T13:26:00.752Z,97588.88
2022-09-23T13:28:43.031Z,97570.84
2022-09-23T13:31:17.481Z,97580.03
2022-09-23T13:33:49.248Z,97573.00
2022-09-23T13:36:21.148Z,97570.75
2022-09-23T13:38:49.567Z,97575.69
2022-09-23T13:41:23.108Z,97565.34
2022-09-23T13:43:55.313Z,97569.53
2022-09-23T13:46:27.048Z,97565.19
2022-09-23T13:48:56.519Z,97564.81
2022-09-23T13:51:28.328Z,97557.16
2022-09-23T13:53:59.023Z,97556.56
2022-09-23T13:56:31.671Z,97554.78
2022-09-23T13:59:25.731Z,97557.97
2022-09-23T14:02:06.045Z,97560.28
2022-09-23T14:04:34.458Z,97557.59
2022-09-23T14:07:03.834Z,97556.56
2022-09-23T14:09:33.234Z,97542.78
2022-09-23T14:12:06.046Z,97550.44
2022-09-23T14:14:37.081Z,97545.97
2022-09-23T14:17:06.595Z,97543.50
2022-09-23T14:19:36.501Z,97543.84
2022-09-23T14:22:08.176Z,97540.69
2022-09-23T14:24:40.558Z,97534.25
2022-09-23T14:27:17.565Z,97538.81
2022-09-23T14:29:48.177Z,97531.78
2022-09-23T14:32:21.133Z,97530.09
2022-09-23T14:34:53.451Z,97523.47
2022-09-23T14:37:47.573Z,97522.31
2022-09-23T14:40:19.645Z,97523.00
2022-09-23T14:42:52.909Z,97520.38
2022-09-23T14:47:58.847Z,97514.97
2022-09-23T14:50:47.193Z,97520.47
2022-09-23T14:53:36.858Z,97517.72
2022-09-23T14:56:20.939Z,97512.66
2022-09-23T14:58:54.194Z,97513.59
2022-09-23T15:01:36.566Z,97517.88
2022-09-23T15:04:16.201Z,97516.75
2022-09-23T15:06:50.699Z,97512.72
2022-09-23T15:09:28.021Z,97511.38
2022-09-23T15:12:02.041Z,97503.00
2022-09-23T15:14:39.627Z,97503.75
2022-09-23T15:17:25.890Z,97499.88
2022-09-23T15:19:57.126Z,97505.84
2022-09-23T15:22:26.139Z,97497.41
2022-09-23T15:24:56.435Z,97505.44
2022-09-23T15:27:30.885Z,97493.72
2022-09-23T15:30:19.629Z,97494.69
2022-09-23T15:32:48.904Z,97487.28
2022-09-23T15:35:19.628Z,97494.84
2022-09-23T15:37:50.082Z,97488.28
2022-09-23T15:40:22.769Z,97485.84
2022-09-23T15:42:52.669Z,97486.72
2022-09-23T15:45:31.633Z,97488.88
2022-09-23T15:48:04.180Z,97487.28
2022-09-23T15:50:35.121Z,97483.19
2022-09-23T15:53:03.580Z,97486.13
2022-09-23T15:55:32.012Z,97481.56
2022-09-23T15:58:00.584Z,97484.53
2022-09-23T16:00:30.352Z,97479.19
2022-09-23T16:02:58.693Z,97477.56
2022-09-23T16:05:33.172Z,97478.22
2022-09-23T16:08:07.900Z,97477.22
2022-09-23T16:10:37.842Z,97471.84
2022-09-23T16:13:11.710Z,97471.91
2022-09-23T16:15:42.022Z,97468.41
2022-09-23T16:18:11.875Z,97470.50
2022-09-23T16:20:43.009Z,97466.16
2022-09-23T16:23:34.702Z,97466.84
2022-09-23T16:26:07.285Z,97473.69
2022-09-23T16:28:35.921Z,97477.66
2022-09-23T16:31:05.942Z,97474.59
2022-09-23T16:33:34.301Z,97479.34
2022-09-23T16:36:03.418Z,97472.72
2022-09-23T16:38:32.822Z,97477.94
2022-09-23T16:41:01.421Z,97468.59
2022-09-23T16:43:31.669Z,97471.72
2022-09-23T16:46:00.388Z,97473.16
2022-09-23T16:48:30.114Z,97479.56
2022-09-23T16:50:58.500Z,97477.06
2022-09-23T16:53:30.585Z,97472.31
2022-09-23T16:55:59.029Z,97473.34
2022-09-23T16:58:27.350Z,97472.09
2022-09-23T17:01:16.205Z,97471.19
2022-09-23T17:03:47.247Z,97479.03
2022-09-23T17:06:19.379Z,97482.72
2022-09-23T17:08:49.356Z,97480.03
2022-09-23T17:11:18.243Z,97482.03
2022-09-23T17:13:47.586Z,97475.81
2022-09-23T17:16:24.820Z,97485.28
2022-09-23T17:18:56.499Z,97473.88
2022-09-23T17:21:27.003Z,97488.09
2022-09-23T17:23:55.907Z,97482.44
2022-09-23T17:26:26.811Z,97485.28
2022-09-23T17:28:57.521Z,97477.38
2022-09-23T17:31:26.626Z,97477.56
2022-09-23T17:33:56.619Z,97477.88
2022-09-23T17:36:24.937Z,97474.34
2022-09-23T17:38:54.477Z,97479.44
2022-09-23T17:41:22.986Z,97481.91
2022-09-23T17:43:56.674Z,97484.91
2022-09-23T17:46:25.373Z,97481.16
2022-09-23T17:48:55.751Z,97481.94
2022-09-23T17:51:25.293Z,97481.19
2022-09-23T17:53:53.850Z,97483.66
2022-09-23T17:56:24.941Z,97490.81
2022-09-23T17:58:54.719Z,97485.56
2022-09-23T18:01:25.821Z,97490.66
2022-09-23T18:03:58.225Z,97492.25
2022-09-23T18:06:28.985Z,97496.53
2022-09-23T18:08:57.339Z,97485.75
2022-09-23T18:11:27.769Z,97494.53
2022-09-23T18:13:58.439Z,97493.44
2022-09-23T18:16:29.235Z,97491.72
2022-09-23T18:19:01.545Z,97490.81
2022-09-23T18:21:32.683Z,97489.09
2022-09-23T18:26:50.687Z,97492.38
2022-09-23T18:29:19.710Z,97492.09
2022-09-23T18:31:49.280Z,97491.22
2022-09-23T18:34:20.318Z,97496.31
2022-09-23T18:36:48.822Z,97496.22
2022-09-23T18:39:17.348Z,97490.94
2022-09-23T18:41:45.713Z,97500.72
2022-09-23T18:44:14.075Z,97502.31
2022-09-23T18:46:42.846Z,97502.00
2022-09-23T18:49:28.609Z,97501.09
2022-09-23T18:51:59.508Z,97510.22
2022-09-23T18:54:30.391Z,97502.91
2022-09-23T18:56:59.349Z,97506.13
2022-09-23T18:59:29.123Z,97498.84
2022-09-23T19:01:58.310Z,97497.91
2022-09-23T19:04:28.184Z,97491.41
2022-09-23T19:06:58.853Z,97495.81
2022-09-23T19:09:27.309Z,97496.56
2022-09-23T19:11:55.671Z,97500.78
2022-09-23T19:14:23.967Z,97502.50
2022-09-23T19:16:52.323Z,97505.06
2022-09-23T19:19:20.927Z,97502.09
2022-09-23T19:21:49.313Z,97496.28
2022-09-23T19:24:20.507Z,97500.47
2022-09-23T19:26:50.378Z,97502.22
2022-09-23T19:29:21.816Z,97499.25
2022-09-23T19:31:51.080Z,97498.13
2022-09-23T19:34:23.850Z,97505.00
2022-09-23T19:36:52.882Z,97506.53
2022-09-23T19:39:24.971Z,97513.41
2022-09-23T19:41:55.784Z,97505.88
2022-09-23T19:44:25.204Z,97500.25
2022-09-23T19:46:56.733Z,97500.97
2022-09-23T19:49:26.123Z,97494.97
2022-09-23T19:51:56.664Z,97500.81
2022-09-23T19:54:27.604Z,97496.00
2022-09-23T19:56:56.456Z,97494.88
2022-09-23T19:59:26.456Z,97494.22
2022-09-23T20:01:55.294Z,97492.91
2022-09-23T20:04:23.800Z,97488.59
2022-09-23T20:06:52.178Z,97491.59
2022-09-23T20:09:20.874Z,97491.09
2022-09-23T20:11:51.034Z,97493.09
2022-09-23T20:14:19.469Z,97492.81
2022-09-23T20:16:48.082Z,97491.66
2022-09-23T20:19:16.664Z,97492.16
2022-09-23T20:21:45.023Z,97487.38
2022-09-23T20:24:16.207Z,97492.38
2022-09-23T20:27:01.714Z,97498.06
2022-09-23T20:29:31.452Z,97489.09
2022-09-23T20:31:59.769Z,97492.75
2022-09-23T20:34:29.697Z,97490.59
2022-09-23T20:36:59.232Z,97487.28
2022-09-23T20:39:28.107Z,97488.59
2022-09-23T20:41:56.574Z,97490.47
2022-09-23T20:44:25.113Z,97490.78
2022-09-23T20:46:54.981Z,97487.63
2022-09-23T20:49:23.429Z,97482.78
2022-09-23T20:51:52.123Z,97486.78
2022-09-23T20:54:21.033Z,97475.63
2022-09-23T20:56:49.351Z,97479.47
2022-09-23T20:59:17.981Z,97486.16
2022-09-23T21:01:46.757Z,97479.81
2022-09-23T21:04:16.677Z,97482.31
2022-09-23T21:06:45.047Z,97480.81
2022-09-23T21:09:13.329Z,97482.81
2022-09-23T21:11:41.805Z,97478.50
2022-09-23T21:14:10.731Z,97480.66
2022-09-23T21:16:39.492Z,97477.19
2022-09-23T21:19:08.565Z,97480.81
2022-09-23T21:21:38.950Z,97475.03
2022-09-23T21:24:36.011Z,97476.16
2022-09-23T21:26:56.011Z,97474.84
2022-09-23T21:29:24.310Z,97484.81
2022-09-23T21:31:52.763Z,97474.03
2022-09-23T21:34:21.126Z,97474.50
2022-09-23T21:36:50.836Z,97472.84
2022-09-23T21:39:19.525Z,97472.19
2022-09-23T21:41:47.884Z,97477.03
2022-09-23T21:44:16.455Z,97474.69
2022-09-23T21:46:44.884Z,97474.03
2022-09-23T21:49:13.322Z,97471.88
2022-09-23T21:51:42.565Z,97466.22
2022-09-23T21:54:15.994Z,97466.41
2022-09-23T21:56:45.445Z,97473.88
2022-09-23T21:59:14.005Z,97467.06
2022-09-23T22:01:45.212Z,97474.34
2022-09-23T22:04:17.671Z,97472.19
2022-09-23T22:06:48.876Z,97473.38
2022-09-23T22:09:21.849Z,97461.03
2022-09-23T22:12:09.845Z,97475.34
2022-09-23T22:14:39.126Z,97469.19
2022-09-23T22:17:11.347Z,97466.69
2022-09-23T22:19:45.877Z,97462.38
2022-09-23T22:22:18.111Z,97460.72
2022-09-23T22:24:49.121Z,97457.22
2022-09-23T22:27:19.996Z,97467.84
2022-09-23T22:30:05.868Z,97471.38
2022-09-23T22:32:43.679Z,97474.03
2022-09-23T22:35:16.571Z,97470.69
2022-09-23T22:37:45.489Z,97472.34
2022-09-23T22:40:16.774Z,97467.50
2022-09-23T22:42:45.840Z,97464.69
2022-09-23T22:45:14.754Z,97461.38
2022-09-23T22:47:45.566Z,97464.19
2022-09-23T22:50:16.096Z,97458.03
2022-09-23T22:52:44.503Z,97458.22
2022-09-23T22:55:14.463Z,97450.41
2022-09-23T22:57:42.837Z,97451.25
2022-09-23T23:00:13.500Z,97443.25
2022-09-23T23:02:42.514Z,97438.28
2022-09-23T23:05:11.376Z,97437.59
2022-09-23T23:07:40.557Z,97436.78
2022-09-23T23:10:10.341Z,97426.28
2022-09-23T23:12:41.670Z,97424.75
2022-09-23T23:15:12.889Z,97424.13
2022-09-23T23:17:43.683Z,97420.78
2022-09-23T23:20:12.266Z,97428.75
2022-09-23T23:22:40.615Z,97437.56
2022-09-23T23:25:10.509Z,97436.56
2022-09-23T23:27:40.252Z,97431.56
2022-09-23T23:30:10.334Z,97424.44
2022-09-23T23:32:38.857Z,97432.59
2022-09-23T23:35:08.591Z,97434.22
2022-09-23T23:37:36.990Z,97439.72
2022-09-23T23:40:06.331Z,97429.25
2022-09-23T23:42:34.778Z,97420.44
2022-09-23T23:45:05.026Z,97429.41
2022-09-23T23:47:33.395Z,97421.44
2022-09-23T23:50:04.423Z,97427.59
2022-09-23T23:52:32.770Z,97425.25
2022-09-23T23:55:01.109Z,97419.09
2022-09-23T23:57:29.519Z,97413.94
2022-09-23T23:59:57.867Z,97423.91
